createdAt,value
2024-04-25T00:01:50.184Z,6.90
2024-04-25T00:04:17.659Z,6.90
2024-04-25T00:06:45.194Z,6.90
2024-04-25T00:09:12.645Z,6.90
2024-04-25T00:11:40.383Z,7.00
2024-04-25T00:14:08.362Z,7.00
2024-04-25T00:16:35.867Z,7.00
2024-04-25T00:19:03.452Z,7.00
2024-04-25T00:21:30.982Z,7.00
2024-04-25T00:23:58.415Z,7.00
2024-04-25T00:26:25.902Z,7.00
2024-04-25T00:28:53.408Z,7.00
2024-04-25T00:31:21.767Z,7.00
2024-04-25T00:33:49.354Z,7.00
2024-04-25T00:36:17.044Z,7.00
2024-04-25T00:38:44.506Z,7.00
2024-04-25T00:41:12.036Z,7.00
2024-04-25T00:43:39.527Z,7.00
2024-04-25T00:46:07.281Z,7.00
2024-04-25T00:48:35.416Z,7.00
2024-04-25T00:51:06.904Z,7.00
2024-04-25T00:53:35.342Z,7.00
2024-04-25T00:56:05.455Z,7.00
2024-04-25T00:58:34.727Z,7.00
2024-04-25T01:01:06.686Z,7.00
2024-04-25T01:03:35.319Z,7.00
2024-04-25T01:06:06.691Z,7.00
2024-04-25T01:08:35.000Z,7.00
2024-04-25T01:11:02.565Z,6.90
2024-04-25T01:13:30.110Z,6.90
2024-04-25T01:15:57.640Z,6.90
2024-04-25T01:18:25.151Z,6.90
2024-04-25T01:20:52.556Z,6.90
2024-04-25T01:23:21.248Z,6.80
2024-04-25T01:25:50.165Z,6.80
2024-04-25T01:28:18.569Z,6.80
2024-04-25T01:30:47.420Z,6.80
2024-04-25T01:33:17.329Z,6.80
2024-04-25T01:35:47.684Z,6.70
2024-04-25T01:38:15.776Z,6.70
2024-04-25T01:40:43.341Z,6.60
2024-04-25T01:43:10.808Z,6.60
2024-04-25T01:45:38.246Z,6.50
2024-04-25T01:48:06.943Z,6.50
2024-04-25T01:50:34.483Z,6.40
2024-04-25T01:53:01.888Z,6.40
2024-04-25T01:55:29.315Z,6.40
2024-04-25T01:57:56.710Z,6.30
2024-04-25T02:00:24.194Z,6.30
2024-04-25T02:02:51.730Z,6.20
2024-04-25T02:05:19.282Z,6.20
2024-04-25T02:07:47.675Z,6.20
2024-04-25T02:10:15.162Z,6.10
2024-04-25T02:12:42.642Z,6.10
2024-04-25T02:15:10.109Z,6.10
2024-04-25T02:17:41.720Z,6.00
2024-04-25T02:20:30.663Z,6.00
2024-04-25T02:23:17.085Z,6.00
2024-04-25T02:25:45.357Z,6.00
2024-04-25T02:28:12.790Z,5.90
2024-04-25T02:30:40.315Z,5.90
2024-04-25T02:33:07.941Z,5.80
2024-04-25T02:35:35.652Z,5.80
2024-04-25T02:38:03.063Z,5.80
2024-04-25T02:40:30.509Z,5.80
2024-04-25T02:42:57.877Z,5.70
2024-04-25T02:45:25.353Z,5.70
2024-04-25T02:47:52.815Z,5.70
2024-04-25T02:50:20.342Z,5.70
2024-04-25T02:52:47.808Z,5.60
2024-04-25T02:55:15.284Z,5.60
2024-04-25T02:57:42.658Z,5.60
2024-04-25T03:00:11.339Z,5.60
2024-04-25T03:02:38.971Z,5.50
2024-04-25T03:05:06.651Z,5.50
2024-04-25T03:07:36.392Z,5.50
2024-04-25T03:10:04.982Z,5.50
2024-04-25T03:12:33.759Z,5.50
2024-04-25T03:15:01.180Z,5.50
2024-04-25T03:17:30.082Z,5.50
2024-04-25T03:19:57.750Z,5.50
2024-04-25T03:22:25.145Z,5.40
2024-04-25T03:24:52.562Z,5.40
2024-04-25T03:27:20.437Z,5.40
2024-04-25T03:29:47.747Z,5.40
2024-04-25T03:32:15.308Z,5.40
2024-04-25T03:34:43.202Z,5.40
2024-04-25T03:37:10.796Z,5.40
2024-04-25T03:39:38.211Z,5.40
2024-04-25T03:42:06.863Z,5.40
2024-04-25T03:44:34.384Z,5.40
2024-04-25T03:47:01.963Z,5.40
2024-04-25T03:49:29.377Z,5.40
2024-04-25T03:51:56.816Z,5.40
2024-04-25T03:54:24.214Z,5.40
2024-04-25T03:56:51.709Z,5.40
2024-04-25T03:59:19.747Z,5.40
2024-04-25T04:01:47.182Z,5.50
2024-04-25T04:04:14.650Z,5.50
2024-04-25T04:06:42.050Z,5.50
2024-04-25T04:09:09.586Z,5.50
2024-04-25T04:11:40.526Z,5.50
2024-04-25T04:14:08.272Z,5.60
2024-04-25T04:16:35.681Z,5.60
2024-04-25T04:19:03.222Z,5.60
2024-04-25T04:21:30.879Z,5.60
2024-04-25T04:23:58.327Z,5.60
2024-04-25T04:26:25.901Z,5.60
2024-04-25T04:28:53.386Z,5.60
2024-04-25T04:31:20.875Z,5.70
2024-04-25T04:33:48.444Z,5.70
2024-04-25T04:36:16.148Z,5.70
2024-04-25T04:38:44.005Z,5.70
2024-04-25T04:41:11.470Z,5.70
2024-04-25T04:43:41.021Z,5.70
2024-04-25T04:46:10.057Z,5.70
2024-04-25T04:48:38.294Z,5.70
2024-04-25T04:51:05.971Z,5.70
2024-04-25T04:53:34.210Z,5.80
2024-04-25T04:56:03.346Z,5.80
2024-04-25T04:58:30.785Z,5.80
2024-04-25T05:01:00.205Z,5.80
2024-04-25T05:03:27.713Z,5.80
2024-04-25T05:05:55.375Z,5.90
2024-04-25T05:08:23.623Z,5.90
2024-04-25T05:10:51.359Z,6.00
2024-04-25T05:13:19.793Z,6.00
2024-04-25T05:15:47.292Z,6.10
2024-04-25T05:18:14.768Z,6.10
2024-04-25T05:20:42.479Z,6.20
2024-04-25T05:23:09.949Z,6.20
2024-04-25T05:25:37.865Z,6.30
2024-04-25T05:28:05.742Z,6.40
2024-04-25T05:30:34.488Z,6.50
2024-04-25T05:33:04.891Z,6.60
2024-04-25T05:35:32.635Z,6.70
2024-04-25T05:38:00.104Z,6.90
2024-04-25T05:40:27.666Z,7.00
2024-04-25T05:42:55.097Z,7.20
2024-04-25T05:45:22.748Z,7.30
2024-04-25T05:47:50.256Z,7.40
2024-04-25T05:50:18.153Z,7.50
2024-04-25T05:52:45.684Z,7.60
2024-04-25T05:55:13.199Z,7.70
2024-04-25T05:57:40.654Z,7.80
2024-04-25T06:00:09.386Z,7.80
2024-04-25T06:02:36.802Z,7.90
2024-04-25T06:05:04.650Z,7.90
2024-04-25T06:07:32.049Z,8.00
2024-04-25T06:09:59.544Z,8.10
2024-04-25T06:12:27.204Z,8.10
2024-04-25T06:14:54.905Z,8.20
2024-04-25T06:17:22.427Z,8.30
2024-04-25T06:19:49.988Z,8.30
2024-04-25T06:22:17.420Z,8.40
2024-04-25T06:24:45.000Z,8.40
2024-04-25T06:27:12.505Z,8.50
2024-04-25T06:29:39.927Z,8.50
2024-04-25T06:32:07.625Z,8.50
2024-04-25T06:34:35.249Z,8.60
2024-04-25T06:37:06.635Z,8.60
2024-04-25T06:39:34.495Z,8.70
2024-04-25T06:42:02.677Z,8.80
2024-04-25T06:44:37.255Z,8.90
2024-04-25T06:47:08.444Z,9.00
2024-04-25T06:49:36.255Z,9.10
2024-04-25T06:52:03.946Z,9.20
2024-04-25T06:54:31.687Z,9.30
2024-04-25T06:56:59.204Z,9.50
2024-04-25T06:59:26.600Z,9.60
2024-04-25T07:01:55.694Z,9.70
2024-04-25T07:04:23.208Z,9.70
2024-04-25T07:06:50.596Z,9.80
2024-04-25T07:09:18.112Z,9.90
2024-04-25T07:11:45.558Z,9.90
2024-04-25T07:14:13.159Z,9.90
2024-04-25T07:16:41.031Z,10.00
2024-04-25T07:19:08.511Z,10.00
2024-04-25T07:21:35.985Z,10.10
2024-04-25T07:24:05.116Z,10.10
2024-04-25T07:26:32.585Z,10.10
2024-04-25T07:29:00.402Z,10.20
2024-04-25T07:31:27.820Z,10.20
2024-04-25T07:33:55.642Z,10.30
2024-04-25T07:36:23.209Z,10.30
2024-04-25T07:38:52.076Z,10.30
2024-04-25T07:41:20.568Z,10.40
2024-04-25T07:43:48.127Z,10.40
2024-04-25T07:46:16.168Z,10.40
2024-04-25T07:48:46.049Z,10.40
2024-04-25T07:51:13.840Z,10.40
2024-04-25T07:53:41.362Z,10.40
2024-04-25T07:56:08.959Z,10.40
2024-04-25T07:58:36.508Z,10.40
2024-04-25T08:01:04.272Z,10.50
2024-04-25T08:03:32.066Z,10.50
2024-04-25T08:05:59.756Z,10.60
2024-04-25T08:08:28.222Z,10.80
2024-04-25T08:10:55.776Z,10.80
2024-04-25T08:13:23.680Z,10.90
2024-04-25T08:15:51.191Z,11.00
2024-04-25T08:18:18.740Z,11.00
2024-04-25T08:20:46.232Z,11.10
2024-04-25T08:23:13.915Z,11.20
2024-04-25T08:25:41.521Z,11.30
2024-04-25T08:28:12.636Z,11.40
2024-04-25T08:30:43.010Z,11.50
2024-04-25T08:33:10.978Z,11.60
2024-04-25T08:35:40.091Z,11.70
2024-04-25T08:38:07.724Z,11.90
2024-04-25T08:40:35.847Z,12.00
2024-04-25T08:43:06.781Z,12.20
2024-04-25T08:45:35.256Z,12.30
2024-04-25T08:48:05.947Z,12.30
2024-04-25T08:50:36.189Z,12.40
2024-04-25T08:53:06.413Z,12.40
2024-04-25T08:55:35.769Z,12.50
2024-04-25T08:58:07.729Z,12.60
2024-04-25T09:00:35.318Z,12.60
2024-04-25T09:03:09.738Z,12.80
2024-04-25T09:05:37.510Z,12.90
2024-04-25T09:08:05.663Z,12.90
2024-04-25T09:10:43.648Z,13.00
2024-04-25T09:13:11.484Z,13.10
2024-04-25T09:15:39.116Z,13.00
2024-04-25T09:18:06.902Z,13.00
2024-04-25T09:20:34.671Z,12.90
2024-04-25T09:23:05.769Z,12.70
2024-04-25T09:25:34.752Z,12.40
2024-04-25T09:28:04.116Z,12.00
2024-04-25T09:30:34.194Z,11.70
2024-04-25T09:33:07.793Z,11.40
2024-04-25T09:35:45.292Z,11.10
2024-04-25T09:38:13.067Z,10.90
2024-04-25T09:40:40.630Z,10.80
2024-04-25T09:43:08.522Z,10.80
2024-04-25T09:45:42.213Z,10.90
2024-04-25T09:48:18.158Z,11.00
2024-04-25T09:50:50.890Z,11.10
2024-04-25T09:53:43.027Z,11.30
2024-04-25T09:56:14.860Z,11.50
2024-04-25T09:58:45.148Z,11.70
2024-04-25T10:01:13.428Z,11.90
2024-04-25T10:03:42.582Z,12.10
2024-04-25T10:06:11.326Z,12.20
2024-04-25T10:08:42.175Z,12.20
2024-04-25T10:11:10.860Z,12.20
2024-04-25T10:13:50.274Z,12.20
2024-04-25T10:16:21.114Z,12.20
2024-04-25T10:18:53.966Z,12.30
2024-04-25T10:21:22.695Z,12.30
2024-04-25T10:23:54.864Z,12.40
2024-04-25T10:26:23.899Z,12.60
2024-04-25T10:29:05.439Z,12.70
2024-04-25T10:31:37.099Z,13.00
2024-04-25T10:34:08.188Z,13.20
2024-04-25T10:36:37.944Z,13.40
2024-04-25T10:39:08.717Z,13.50
2024-04-25T10:41:40.060Z,13.70
2024-04-25T10:44:11.620Z,13.90
2024-04-25T10:46:39.930Z,14.10
2024-04-25T10:49:09.913Z,14.20
2024-04-25T10:51:41.122Z,14.20
2024-04-25T10:54:08.865Z,14.30
2024-04-25T10:56:40.516Z,14.40
2024-04-25T10:59:08.339Z,14.40
2024-04-25T11:01:35.802Z,14.40
2024-04-25T11:04:05.522Z,14.40
2024-04-25T11:06:39.168Z,14.40
2024-04-25T11:09:14.743Z,14.50
2024-04-25T11:11:42.305Z,14.50
2024-04-25T11:14:09.729Z,14.40
2024-04-25T11:16:39.089Z,14.40
2024-04-25T11:19:14.330Z,14.40
2024-04-25T11:21:46.983Z,14.40
2024-04-25T11:24:17.862Z,14.50
2024-04-25T11:26:50.740Z,14.50
2024-04-25T11:29:18.931Z,14.60
2024-04-25T11:31:47.429Z,14.60
2024-04-25T11:34:23.632Z,14.70
2024-04-25T11:37:06.965Z,14.80
2024-04-25T11:39:38.391Z,14.80
2024-04-25T11:42:08.528Z,14.80
2024-04-25T11:44:36.526Z,14.70
2024-04-25T11:47:04.351Z,14.70
2024-04-25T11:49:32.371Z,14.60
2024-04-25T11:51:59.801Z,14.60
2024-04-25T11:54:27.336Z,14.50
2024-04-25T11:56:56.509Z,14.50
2024-04-25T11:59:23.883Z,14.50
2024-04-25T12:01:53.954Z,14.60
2024-04-25T12:04:22.850Z,14.70
2024-04-25T12:06:50.384Z,14.80
2024-04-25T12:09:17.815Z,14.90
2024-04-25T12:11:49.383Z,14.90
2024-04-25T12:14:19.133Z,15.00
2024-04-25T12:16:47.187Z,15.10
2024-04-25T12:19:14.564Z,15.20
2024-04-25T12:21:41.962Z,15.30
2024-04-25T12:24:09.312Z,15.30
2024-04-25T12:26:36.823Z,15.30
2024-04-25T12:29:04.325Z,15.10
2024-04-25T12:31:31.863Z,14.80
2024-04-25T12:34:01.430Z,14.50
2024-04-25T12:36:29.053Z,14.30
2024-04-25T12:38:56.928Z,14.00
2024-04-25T12:41:24.814Z,13.80
2024-04-25T12:43:53.891Z,13.50
2024-04-25T12:46:21.588Z,13.30
2024-04-25T12:48:49.275Z,13.20
2024-04-25T12:51:16.811Z,13.00
2024-04-25T12:53:44.393Z,13.00
2024-04-25T12:56:12.230Z,13.00
2024-04-25T12:58:42.232Z,13.10
2024-04-25T13:01:10.560Z,13.10
2024-04-25T13:03:38.047Z,13.30
2024-04-25T13:06:06.036Z,13.40
2024-04-25T13:08:33.579Z,13.50
2024-04-25T13:11:01.161Z,13.70
2024-04-25T13:13:31.350Z,13.80
2024-04-25T13:16:00.877Z,14.00
2024-04-25T13:18:28.506Z,14.10
2024-04-25T13:20:56.875Z,14.20
2024-04-25T13:23:25.273Z,14.40
2024-04-25T13:25:52.783Z,14.60
2024-04-25T13:28:20.199Z,14.70
2024-04-25T13:30:47.727Z,14.90
2024-04-25T13:33:15.249Z,15.10
2024-04-25T13:35:42.890Z,15.30
2024-04-25T13:38:10.706Z,15.40
2024-04-25T13:40:38.339Z,15.50
2024-04-25T13:43:05.856Z,15.70
2024-04-25T13:45:33.273Z,15.80
2024-04-25T13:48:00.953Z,15.90
2024-04-25T13:50:28.700Z,15.90
2024-04-25T13:52:56.225Z,16.00
2024-04-25T13:55:24.940Z,16.10
2024-04-25T13:57:53.075Z,16.20
2024-04-25T14:00:20.839Z,16.30
2024-04-25T14:02:50.123Z,16.40
2024-04-25T14:05:17.903Z,16.50
2024-04-25T14:07:47.351Z,16.60
2024-04-25T14:10:14.986Z,16.60
2024-04-25T14:12:42.975Z,16.60
2024-04-25T14:15:11.375Z,16.60
2024-04-25T14:17:41.336Z,16.60
2024-04-25T14:20:09.346Z,16.50
2024-04-25T14:22:39.906Z,16.50
2024-04-25T14:25:27.758Z,16.40
2024-04-25T14:28:14.160Z,16.40
2024-04-25T14:30:41.777Z,16.20
2024-04-25T14:33:09.367Z,16.00
2024-04-25T14:35:36.893Z,15.80
2024-04-25T14:38:04.608Z,15.60
2024-04-25T14:40:32.179Z,15.40
2024-04-25T14:43:00.056Z,15.30
2024-04-25T14:45:27.803Z,15.30
2024-04-25T14:47:55.489Z,15.30
2024-04-25T14:50:23.258Z,15.40
2024-04-25T14:52:50.808Z,15.60
2024-04-25T14:55:18.318Z,15.70
2024-04-25T14:57:46.403Z,15.90
2024-04-25T15:00:14.398Z,16.10
2024-04-25T15:02:43.410Z,16.30
2024-04-25T15:05:11.020Z,16.50
2024-04-25T15:07:38.454Z,16.80
2024-04-25T15:10:08.662Z,16.90
2024-04-25T15:12:45.799Z,17.00
2024-04-25T15:15:18.582Z,17.10
2024-04-25T15:17:52.496Z,17.10
2024-04-25T15:20:22.215Z,17.20
2024-04-25T15:22:49.704Z,17.40
2024-04-25T15:25:17.215Z,17.50
2024-04-25T15:27:44.711Z,17.70
2024-04-25T15:30:14.429Z,17.80
2024-04-25T15:32:43.348Z,17.90
2024-04-25T15:35:11.223Z,18.10
2024-04-25T15:37:38.914Z,18.20
2024-04-25T15:40:07.581Z,18.50
2024-04-25T15:42:35.160Z,18.90
2024-04-25T15:45:03.515Z,19.40
2024-04-25T15:47:33.755Z,19.90
2024-04-25T15:50:01.366Z,20.50
2024-04-25T15:52:34.992Z,21.10
2024-04-25T15:55:04.488Z,21.80
2024-04-25T15:57:32.043Z,22.50
2024-04-25T15:59:59.720Z,23.10
2024-04-25T16:02:27.449Z,23.80
2024-04-25T16:04:54.948Z,24.30
2024-04-25T16:07:22.317Z,24.90
2024-04-25T16:09:50.434Z,25.40
2024-04-25T16:12:17.857Z,25.80
2024-04-25T16:14:45.401Z,26.20
2024-04-25T16:17:13.359Z,26.60
2024-04-25T16:19:43.204Z,27.00
2024-04-25T16:22:10.730Z,27.30
2024-04-25T16:24:38.192Z,27.50
2024-04-25T16:27:07.407Z,27.50
2024-04-25T16:29:35.304Z,27.60
2024-04-25T16:32:03.111Z,27.60
2024-04-25T16:34:30.602Z,27.70
2024-04-25T16:36:58.816Z,27.60
2024-04-25T16:59:50.032Z,26.70
2024-04-25T17:02:17.752Z,26.50
2024-04-25T17:04:46.213Z,26.30
2024-04-25T17:07:14.977Z,26.20
2024-04-25T17:09:44.529Z,26.00
2024-04-25T17:15:35.845Z,25.40
2024-04-25T17:18:05.032Z,25.10
2024-04-25T17:20:32.766Z,24.80
2024-04-25T17:23:00.289Z,24.40
2024-04-25T17:25:28.176Z,24.00
2024-04-25T17:27:57.137Z,23.60
2024-04-25T17:33:13.457Z,22.90
2024-04-25T17:35:40.875Z,22.50
2024-04-25T17:38:09.564Z,22.10
2024-04-25T17:40:36.955Z,21.80
2024-04-25T17:43:04.551Z,21.50
2024-04-25T17:45:32.013Z,21.20
2024-04-25T17:47:59.633Z,20.90
2024-04-25T17:50:27.391Z,20.60
2024-04-25T17:52:54.888Z,20.30
2024-04-25T17:55:22.369Z,20.00
2024-04-25T17:57:50.828Z,19.80
2024-04-25T18:00:19.899Z,19.50
2024-04-25T18:02:49.876Z,19.30
2024-04-25T18:05:18.813Z,19.10
2024-04-25T18:07:46.305Z,18.80
2024-04-25T18:10:13.935Z,18.60
2024-04-25T18:12:41.376Z,18.30
2024-04-25T18:15:08.888Z,18.10
2024-04-25T18:17:37.584Z,17.90
2024-04-25T18:20:05.689Z,17.70
2024-04-25T18:22:34.648Z,17.50
2024-04-25T18:25:02.149Z,17.30
2024-04-25T18:27:29.834Z,17.10
2024-04-25T18:29:57.287Z,16.90
2024-04-25T18:32:25.651Z,16.70
2024-04-25T18:34:53.415Z,16.50
2024-04-25T18:37:37.941Z,16.30
2024-04-25T18:40:20.453Z,16.10
2024-04-25T18:42:58.886Z,16.00
2024-04-25T18:46:04.542Z,15.80
2024-04-25T18:51:32.403Z,15.40
2024-04-25T18:54:00.220Z,15.20
2024-04-25T18:56:50.902Z,15.00
2024-04-25T18:59:39.299Z,14.90
2024-04-25T19:05:02.695Z,14.50
2024-04-25T19:07:37.244Z,14.30
2024-04-25T19:12:54.797Z,14.10
2024-04-25T19:15:23.826Z,13.90
2024-04-25T19:18:27.623Z,13.80
2024-04-25T19:21:28.213Z,13.70
2024-04-25T19:24:10.398Z,13.60
2024-04-25T19:27:01.037Z,13.50
2024-04-25T19:29:32.774Z,13.30
2024-04-25T19:32:01.698Z,13.20
2024-04-25T19:34:29.225Z,13.10
2024-04-25T19:36:56.722Z,12.90
2024-04-25T19:39:24.865Z,12.80
2024-04-25T19:41:52.482Z,12.70
2024-04-25T19:44:19.980Z,12.60
2024-04-25T19:46:47.411Z,12.60
2024-04-25T19:49:15.888Z,12.40
2024-04-25T19:51:44.242Z,12.30
2024-04-25T19:54:12.279Z,12.20
2024-04-25T19:56:40.811Z,12.20
2024-04-25T19:59:08.275Z,12.10
2024-04-25T20:01:35.750Z,12.00
2024-04-25T20:04:03.242Z,11.90
2024-04-25T20:06:30.720Z,11.80
2024-04-25T20:09:00.511Z,11.70
2024-04-25T20:11:28.331Z,11.70
2024-04-25T20:13:55.845Z,11.60
2024-04-25T20:16:23.719Z,11.50
2024-04-25T20:19:10.101Z,11.50
2024-04-25T20:21:43.444Z,11.40
2024-04-25T20:24:11.688Z,11.30
2024-04-25T20:26:39.173Z,11.30
2024-04-25T20:29:06.702Z,11.20
2024-04-25T20:31:34.213Z,11.10
2024-04-25T20:34:01.782Z,11.10
2024-04-25T20:36:29.256Z,11.00
2024-04-25T20:38:57.075Z,10.90
2024-04-25T20:41:25.105Z,10.90
2024-04-25T20:44:21.612Z,10.80
2024-04-25T20:47:16.445Z,10.70
2024-04-25T20:52:25.171Z,10.50
2024-04-25T20:54:52.674Z,10.40
2024-04-25T20:57:20.068Z,10.40
2024-04-25T20:59:49.315Z,10.30
2024-04-25T21:02:17.468Z,10.30
2024-04-25T21:04:44.973Z,10.20
2024-04-25T21:07:12.459Z,10.20
2024-04-25T21:09:40.361Z,10.10
2024-04-25T21:12:08.233Z,10.10
2024-04-25T21:14:38.578Z,10.00
2024-04-25T21:17:06.606Z,10.00
2024-04-25T21:19:34.134Z,9.90
2024-04-25T21:22:01.840Z,9.90
2024-04-25T21:24:29.275Z,9.80
2024-04-25T21:26:57.477Z,9.80
2024-04-25T21:29:24.981Z,9.70
2024-04-25T21:31:55.422Z,9.70
2024-04-25T21:34:23.550Z,9.70
2024-04-25T21:36:51.373Z,9.60
2024-04-25T21:39:18.968Z,9.60
2024-04-25T21:41:47.728Z,9.60
2024-04-25T21:44:15.995Z,9.60
2024-04-25T21:46:45.919Z,9.50
2024-04-25T21:49:16.713Z,9.50
2024-04-25T21:51:45.888Z,9.50
2024-04-25T21:54:14.054Z,9.40
2024-04-25T21:56:41.743Z,9.40
2024-04-25T21:59:09.166Z,9.30
2024-04-25T22:01:36.663Z,9.30
2024-04-25T22:04:04.355Z,9.20
2024-04-25T22:06:32.242Z,9.10
2024-04-25T22:08:59.800Z,9.10
2024-04-25T22:11:27.365Z,9.00
2024-04-25T22:13:54.897Z,8.90
2024-04-25T22:16:22.803Z,8.90
2024-04-25T22:18:51.395Z,8.80
2024-04-25T22:21:19.296Z,8.70
2024-04-25T22:23:47.642Z,8.70
2024-04-25T22:26:15.352Z,8.60
2024-04-25T22:28:44.220Z,8.50
2024-04-25T22:31:11.705Z,8.50
2024-04-25T22:33:39.707Z,8.40
2024-04-25T22:36:10.256Z,8.30
2024-04-25T22:38:37.781Z,8.30
2024-04-25T22:41:05.651Z,8.20
2024-04-25T22:43:33.130Z,8.10
2024-04-25T22:46:00.585Z,8.10
2024-04-25T22:48:28.389Z,8.00
2024-04-25T22:50:56.122Z,8.00
2024-04-25T22:53:23.620Z,7.90
2024-04-25T22:55:51.583Z,7.80
2024-04-25T22:58:19.060Z,7.80
2024-04-25T23:00:46.560Z,7.70
2024-04-25T23:03:14.125Z,7.70
2024-04-25T23:05:42.105Z,7.60
2024-04-25T23:08:10.625Z,7.60
2024-04-25T23:10:38.458Z,7.50
2024-04-25T23:13:06.350Z,7.50
2024-04-25T23:15:33.815Z,7.40
2024-04-25T23:18:01.454Z,7.30
2024-04-25T23:20:29.089Z,7.30
2024-04-25T23:22:56.862Z,7.20
2024-04-25T23:25:24.331Z,7.10
2024-04-25T23:27:51.870Z,7.10
2024-04-25T23:30:22.406Z,7.00
2024-04-25T23:32:50.011Z,7.00
2024-04-25T23:35:17.579Z,6.90
2024-04-25T23:37:44.999Z,6.90
2024-04-25T23:40:12.456Z,6.80
2024-04-25T23:42:40.021Z,6.80
2024-04-25T23:45:07.736Z,6.80
2024-04-25T23:47:35.393Z,6.70
2024-04-25T23:50:03.133Z,6.70
2024-04-25T23:52:30.485Z,6.60
2024-04-25T23:54:57.952Z,6.60
2024-04-25T23:57:26.077Z,6.50
2024-04-25T23:59:53.936Z,6.50
